sensor_id;sensor_type;location;lat;lon;timestamp;pressure;altitude;pressure_sealevel;temperature;humidity
73316;BME280;61545;53.726;-0.444;2023-06-26T00:03:36;1009.1;;;19.1;100.0
73316;BME280;61545;53.726;-0.444;2023-06-26T00:08:36;1009.2;;;18.9;100.0
73316;BME280;61545;53.726;-0.444;2023-06-26T00:13:36;1009.1;;;18.9;100.0
73316;BME280;61545;53.726;-0.444;2023-06-26T00:18:36;1009.1;;;18.9;100.0
73316;BME280;61545;53.726;-0.444;2023-06-26T00:23:36;1009.1;;;18.6;100.0
73316;BME280;61545;53.726;-0.444;2023-06-26T00:28:36;1009.1;;;18.9;100.0
73316;BME280;61545;53.726;-0.444;2023-06-26T00:33:36;1009.1;;;18.5;100.0
73316;BME280;61545;53.726;-0.444;2023-06-26T00:38:36;1009.2;;;18.7;100.0
73316;BME280;61545;53.726;-0.444;2023-06-26T00:43:36;1009.2;;;18.7;100.0
73316;BME280;61545;53.726;-0.444;2023-06-26T00:48:37;1009.1;;;18.4;100.0
73316;BME280;61545;53.726;-0.444;2023-06-26T00:53:36;1009.1;;;18.4;100.0
73316;BME280;61545;53.726;-0.444;2023-06-26T00:58:36;1009.3;;;18.3;100.0
73316;BME280;61545;53.726;-0.444;2023-06-26T01:03:36;1009.4;;;18.2;100.0
73316;BME280;61545;53.726;-0.444;2023-06-26T01:08:36;1009.3;;;18.3;100.0
73316;BME280;61545;53.726;-0.444;2023-06-26T01:13:37;1009.4;;;18.0;100.0
73316;BME280;61545;53.726;-0.444;2023-06-26T01:18:37;1009.4;;;17.9;100.0
73316;BME280;61545;53.726;-0.444;2023-06-26T01:23:38;1009.5;;;17.7;100.0
73316;BME280;61545;53.726;-0.444;2023-06-26T01:28:38;1009.5;;;17.7;100.0
73316;BME280;61545;53.726;-0.444;2023-06-26T01:33:36;1009.6;;;17.7;100.0
73316;BME280;61545;53.726;-0.444;2023-06-26T01:38:36;1009.7;;;17.6;100.0
73316;BME280;61545;53.726;-0.444;2023-06-26T01:43:41;1009.7;;;17.4;100.0
73316;BME280;61545;53.726;-0.444;2023-06-26T01:48:39;1009.8;;;17.3;100.0
73316;BME280;61545;53.726;-0.444;2023-06-26T01:53:38;1009.8;;;17.3;100.0
73316;BME280;61545;53.726;-0.444;2023-06-26T01:58:36;1009.8;;;17.4;100.0
73316;BME280;61545;53.726;-0.444;2023-06-26T02:03:36;1009.8;;;17.2;100.0
73316;BME280;61545;53.726;-0.444;2023-06-26T02:08:36;1009.8;;;17.4;100.0
73316;BME280;61545;53.726;-0.444;2023-06-26T02:13:36;1009.8;;;17.5;100.0
73316;BME280;61545;53.726;-0.444;2023-06-26T02:18:36;1009.8;;;17.2;100.0
73316;BME280;61545;53.726;-0.444;2023-06-26T02:23:36;1009.9;;;17.0;100.0
73316;BME280;61545;53.726;-0.444;2023-06-26T02:28:36;1009.9;;;16.7;100.0
73316;BME280;61545;53.726;-0.444;2023-06-26T02:33:36;1009.9;;;16.7;100.0
73316;BME280;61545;53.726;-0.444;2023-06-26T02:38:36;1010.0;;;17.0;100.0
73316;BME280;61545;53.726;-0.444;2023-06-26T02:43:36;1010.0;;;17.2;100.0
73316;BME280;61545;53.726;-0.444;2023-06-26T02:48:36;1010.1;;;16.9;100.0
73316;BME280;61545;53.726;-0.444;2023-06-26T02:53:36;1010.1;;;16.7;100.0
73316;BME280;61545;53.726;-0.444;2023-06-26T02:58:36;1010.1;;;17.1;100.0
73316;BME280;61545;53.726;-0.444;2023-06-26T03:03:36;1010.1;;;16.9;100.0
73316;BME280;61545;53.726;-0.444;2023-06-26T03:08:36;1010.2;;;16.9;100.0
73316;BME280;61545;53.726;-0.444;2023-06-26T03:13:36;1010.2;;;16.7;100.0
73316;BME280;61545;53.726;-0.444;2023-06-26T03:18:36;1010.2;;;16.5;100.0
73316;BME280;61545;53.726;-0.444;2023-06-26T03:23:36;1010.2;;;16.7;100.0
73316;BME280;61545;53.726;-0.444;2023-06-26T03:28:36;1010.3;;;16.7;100.0
73316;BME280;61545;53.726;-0.444;2023-06-26T03:33:37;1010.3;;;16.4;100.0
73316;BME280;61545;53.726;-0.444;2023-06-26T03:38:36;1010.4;;;16.4;100.0
73316;BME280;61545;53.726;-0.444;2023-06-26T03:43:36;1010.3;;;16.5;100.0
73316;BME280;61545;53.726;-0.444;2023-06-26T03:48:36;1010.4;;;16.3;100.0
73316;BME280;61545;53.726;-0.444;2023-06-26T03:53:36;1010.4;;;16.2;100.0
73316;BME280;61545;53.726;-0.444;2023-06-26T03:58:36;1010.5;;;16.2;100.0
73316;BME280;61545;53.726;-0.444;2023-06-26T04:03:36;1010.6;;;16.5;100.0
73316;BME280;61545;53.726;-0.444;2023-06-26T04:08:36;1010.5;;;16.5;100.0
73316;BME280;61545;53.726;-0.444;2023-06-26T04:13:36;1010.6;;;16.5;100.0
73316;BME280;61545;53.726;-0.444;2023-06-26T04:18:36;1010.6;;;16.5;100.0
73316;BME280;61545;53.726;-0.444;2023-06-26T04:23:37;1010.6;;;16.4;100.0
73316;BME280;61545;53.726;-0.444;2023-06-26T04:28:36;1010.7;;;unknown;100.0
73316;BME280;61545;53.726;-0.444;2023-06-26T04:33:37;1010.7;;;16.4;100.0
73316;BME280;61545;53.726;-0.444;2023-06-26T04:38:36;1010.7;;;16.6;100.0
73316;BME280;61545;53.726;-0.444;2023-06-26T04:43:36;1010.8;;;16.7;100.0
73316;BME280;61545;53.726;-0.444;2023-06-26T04:48:36;1010.8;;;16.7;100.0
73316;BME280;61545;53.726;-0.444;2023-06-26T04:53:36;1010.8;;;16.6;100.0
73316;BME280;61545;53.726;-0.444;2023-06-26T04:58:37;1010.8;;;16.5;100.0
73316;BME280;61545;53.726;-0.444;2023-06-26T05:03:36;1010.9;;;16.4;100.0
73316;BME280;61545;53.726;-0.444;2023-06-26T05:08:36;1011.0;;;16.5;100.0
73316;BME280;61545;53.726;-0.444;2023-06-26T05:13:36;1011.1;;;16.8;100.0
73316;BME280;61545;53.726;-0.444;2023-06-26T05:18:37;1011.3;;;17.0;100.0
73316;BME280;61545;53.726;-0.444;2023-06-26T05:23:37;1011.3;;;17.3;100.0
73316;BME280;61545;53.726;-0.444;2023-06-26T05:28:37;1011.4;;;17.7;100.0
73316;BME280;61545;53.726;-0.444;2023-06-26T05:33:36;1011.4;;;unknown;100.0
73316;BME280;61545;53.726;-0.444;2023-06-26T05:38:37;1011.4;;;17.7;100.0
73316;BME280;61545;53.726;-0.444;2023-06-26T05:43:36;1011.5;;;17.9;100.0
73316;BME280;61545;53.726;-0.444;2023-06-26T05:48:36;1011.5;;;18.5;100.0
73316;BME280;61545;53.726;-0.444;2023-06-26T05:53:37;1011.5;;;18.7;100.0
73316;BME280;61545;53.726;-0.444;2023-06-26T05:58:37;1011.4;;;19.0;100.0
73316;BME280;61545;53.726;-0.444;2023-06-26T06:03:36;1011.4;;;19.7;100.0
73316;BME280;61545;53.726;-0.444;2023-06-26T06:08:37;1011.5;;;19.5;100.0
73316;BME280;61545;53.726;-0.444;2023-06-26T06:13:37;1011.5;;;20.2;100.0
73316;BME280;61545;53.726;-0.444;2023-06-26T06:18:36;1011.5;;;19.7;100.0
73316;BME280;61545;53.726;-0.444;2023-06-26T06:23:36;1011.5;;;20.2;100.0
73316;BME280;61545;53.726;-0.444;2023-06-26T06:28:36;1011.5;;;20.2;100.0
73316;BME280;61545;53.726;-0.444;2023-06-26T06:33:37;1011.5;;;20.6;100.0
73316;BME280;61545;53.726;-0.444;2023-06-26T06:38:36;1011.6;;;20.7;100.0
73316;BME280;61545;53.726;-0.444;2023-06-26T06:43:37;1011.6;;;19.9;100.0
73316;BME280;61545;53.726;-0.444;2023-06-26T06:48:37;1011.6;;;19.9;100.0
73316;BME280;61545;53.726;-0.444;2023-06-26T06:53:37;1011.6;;;20.0;100.0
73316;BME280;61545;53.726;-0.444;2023-06-26T06:58:37;1011.7;;;20.1;100.0
73316;BME280;61545;53.726;-0.444;2023-06-26T07:03:37;1011.7;;;20.4;100.0
73316;BME280;61545;53.726;-0.444;2023-06-26T07:08:37;1011.7;;;21.0;100.0
73316;BME280;61545;53.726;-0.444;2023-06-26T07:13:37;1011.8;;;21.9;100.0
73316;BME280;61545;53.726;-0.444;2023-06-26T07:18:37;1011.8;;;21.3;100.0
73316;BME280;61545;53.726;-0.444;2023-06-26T07:23:37;1011.9;;;20.6;100.0
73316;BME280;61545;53.726;-0.444;2023-06-26T07:28:37;1011.9;;;21.4;100.0
73316;BME280;61545;53.726;-0.444;2023-06-26T07:33:37;1011.9;;;21.6;100.0
73316;BME280;61545;53.726;-0.444;2023-06-26T07:38:36;1012.1;;;21.5;100.0
73316;BME280;61545;53.726;-0.444;2023-06-26T07:43:37;1012.0;;;21.6;100.0
73316;BME280;61545;53.726;-0.444;2023-06-26T07:48:37;1012.1;;;21.6;100.0
73316;BME280;61545;53.726;-0.444;2023-06-26T07:53:37;1012.0;;;20.9;100.0
73316;BME280;61545;53.726;-0.444;2023-06-26T07:58:37;1012.1;;;22.0;100.0
73316;BME280;61545;53.726;-0.444;2023-06-26T08:03:37;1012.1;;;22.7;100.0
73316;BME280;61545;53.726;-0.444;2023-06-26T08:08:37;1012.1;;;22.9;100.0
73316;BME280;61545;53.726;-0.444;2023-06-26T08:13:37;1012.2;;;22.7;100.0
73316;BME280;61545;53.726;-0.444;2023-06-26T08:18:37;1012.2;;;23.0;100.0
73316;BME280;61545;53.726;-0.444;2023-06-26T08:23:37;1012.3;;;21.1;100.0
73316;BME280;61545;53.726;-0.444;2023-06-26T08:28:37;1012.4;;;20.1;100.0
73316;BME280;61545;53.726;-0.444;2023-06-26T08:33:37;1012.4;;;21.0;100.0
73316;BME280;61545;53.726;-0.444;2023-06-26T08:38:37;1012.3;;;22.0;100.0
73316;BME280;61545;53.726;-0.444;2023-06-26T08:43:37;1012.3;;;unknown;100.0
73316;BME280;61545;53.726;-0.444;2023-06-26T08:48:37;1012.3;;;22.8;100.0
73316;BME280;61545;53.726;-0.444;2023-06-26T08:53:40;1012.3;;;22.5;100.0
73316;BME280;61545;53.726;-0.444;2023-06-26T08:58:37;1012.3;;;22.7;100.0
73316;BME280;61545;53.726;-0.444;2023-06-26T09:03:37;1012.4;;;21.3;100.0
73316;BME280;61545;53.726;-0.444;2023-06-26T09:08:37;1012.4;;;21.6;100.0
73316;BME280;61545;53.726;-0.444;2023-06-26T09:13:37;1012.5;;;22.0;100.0
73316;BME280;61545;53.726;-0.444;2023-06-26T09:18:37;1012.4;;;unknown;100.0
73316;BME280;61545;53.726;-0.444;2023-06-26T09:23:37;1012.4;;;21.7;100.0
73316;BME280;61545;53.726;-0.444;2023-06-26T09:28:37;1012.4;;;21.2;100.0
73316;BME280;61545;53.726;-0.444;2023-06-26T09:33:37;1012.5;;;21.9;100.0
73316;BME280;61545;53.726;-0.444;2023-06-26T09:38:37;1012.6;;;unknown;100.0
73316;BME280;61545;53.726;-0.444;2023-06-26T09:43:45;1012.6;;;21.4;100.0
73316;BME280;61545;53.726;-0.444;2023-06-26T09:48:37;1012.6;;;21.0;100.0
73316;BME280;61545;53.726;-0.444;2023-06-26T09:53:37;1012.6;;;22.0;100.0
73316;BME280;61545;53.726;-0.444;2023-06-26T09:58:37;1012.7;;;21.8;100.0
73316;BME280;61545;53.726;-0.444;2023-06-26T10:03:37;1012.8;;;21.6;100.0
73316;BME280;61545;53.726;-0.444;2023-06-26T10:08:37;1012.8;;;21.9;100.0
73316;BME280;61545;53.726;-0.444;2023-06-26T10:13:39;1012.8;;;21.9;100.0
73316;BME280;61545;53.726;-0.444;2023-06-26T10:18:37;1012.9;;;22.2;100.0
73316;BME280;61545;53.726;-0.444;2023-06-26T10:23:37;1012.9;;;21.6;100.0
73316;BME280;61545;53.726;-0.444;2023-06-26T10:28:37;1013.0;;;21.6;100.0
73316;BME280;61545;53.726;-0.444;2023-06-26T10:33:37;1013.0;;;21.9;100.0
73316;BME280;61545;53.726;-0.444;2023-06-26T10:38:48;1013.2;;;21.4;100.0
73316;BME280;61545;53.726;-0.444;2023-06-26T10:43:37;1013.1;;;21.5;100.0
73316;BME280;61545;53.726;-0.444;2023-06-26T10:48:56;1013.3;;;21.4;100.0
73316;BME280;61545;53.726;-0.444;2023-06-26T10:53:37;1013.3;;;20.5;100.0
73316;BME280;61545;53.726;-0.444;2023-06-26T11:02:20;1013.4;;;20.9;100.0
73316;BME280;61545;53.726;-0.444;2023-06-26T11:07:20;1013.4;;;20.0;100.0
73316;BME280;61545;53.726;-0.444;2023-06-26T11:12:34;1013.4;;;20.0;100.0
73316;BME280;61545;53.726;-0.444;2023-06-26T11:17:20;1013.5;;;20.3;100.0
73316;BME280;61545;53.726;-0.444;2023-06-26T11:22:20;1013.4;;;21.5;100.0
73316;BME280;61545;53.726;-0.444;2023-06-26T11:27:20;1013.3;;;21.6;100.0
73316;BME280;61545;53.726;-0.444;2023-06-26T11:32:20;1013.5;;;21.2;100.0
73316;BME280;61545;53.726;-0.444;2023-06-26T11:37:20;1013.5;;;20.9;100.0
73316;BME280;61545;53.726;-0.444;2023-06-26T11:42:20;1013.4;;;21.5;100.0
73316;BME280;61545;53.726;-0.444;2023-06-26T11:47:20;1013.5;;;20.7;100.0
73316;BME280;61545;53.726;-0.444;2023-06-26T11:52:20;1013.5;;;20.6;100.0
73316;BME280;61545;53.726;-0.444;2023-06-26T11:57:20;1013.5;;;21.5;100.0
73316;BME280;61545;53.726;-0.444;2023-06-26T12:02:20;1013.4;;;21.5;100.0
73316;BME280;61545;53.726;-0.444;2023-06-26T12:07:20;1013.6;;;20.4;100.0
73316;BME280;61545;53.726;-0.444;2023-06-26T12:12:20;1013.6;;;20.2;100.0
73316;BME280;61545;53.726;-0.444;2023-06-26T12:17:22;1013.7;;;20.4;100.0
73316;BME280;61545;53.726;-0.444;2023-06-26T12:22:20;1013.8;;;20.5;100.0
73316;BME280;61545;53.726;-0.444;2023-06-26T12:27:20;1013.8;;;20.0;100.0
73316;BME280;61545;53.726;-0.444;2023-06-26T12:32:22;1013.8;;;19.8;100.0
73316;BME280;61545;53.726;-0.444;2023-06-26T12:37:20;1013.7;;;20.5;100.0
73316;BME280;61545;53.726;-0.444;2023-06-26T12:42:21;1013.6;;;21.1;100.0
73316;BME280;61545;53.726;-0.444;2023-06-26T12:47:24;1013.6;;;21.5;100.0
73316;BME280;61545;53.726;-0.444;2023-06-26T12:52:20;1013.5;;;21.2;100.0
73316;BME280;61545;53.726;-0.444;2023-06-26T12:57:20;1013.5;;;21.2;100.0
73316;BME280;61545;53.726;-0.444;2023-06-26T13:02:20;1013.5;;;21.4;100.0
73316;BME280;61545;53.726;-0.444;2023-06-26T13:07:20;1013.4;;;unknown;100.0
73316;BME280;61545;53.726;-0.444;2023-06-26T13:12:20;1013.4;;;21.9;100.0
73316;BME280;61545;53.726;-0.444;2023-06-26T13:17:20;1013.5;;;22.4;100.0
73316;BME280;61545;53.726;-0.444;2023-06-26T13:22:20;1013.6;;;22.3;98.1
73316;BME280;61545;53.726;-0.444;2023-06-26T13:27:20;1013.5;;;21.5;96.5
73316;BME280;61545;53.726;-0.444;2023-06-26T13:32:20;1013.6;;;21.6;96.7
73316;BME280;61545;53.726;-0.444;2023-06-26T13:37:20;1013.6;;;21.9;97.1
73316;BME280;61545;53.726;-0.444;2023-06-26T13:42:20;1013.6;;;22.2;95.4
73316;BME280;61545;53.726;-0.444;2023-06-26T13:47:20;1013.6;;;21.7;93.8
73316;BME280;61545;53.726;-0.444;2023-06-26T13:52:20;1013.7;;;21.5;96.2
73316;BME280;61545;53.726;-0.444;2023-06-26T13:57:20;1013.6;;;22.4;99.1
73316;BME280;61545;53.726;-0.444;2023-06-26T14:02:20;1013.7;;;22.1;96.5
73316;BME280;61545;53.726;-0.444;2023-06-26T14:07:20;1013.7;;;22.1;92.4
73316;BME280;61545;53.726;-0.444;2023-06-26T14:12:20;1013.6;;;22.3;91.5
73316;BME280;61545;53.726;-0.444;2023-06-26T14:17:20;1013.5;;;22.4;92.3
73316;BME280;61545;53.726;-0.444;2023-06-26T14:22:20;1013.7;;;22.2;90.7
73316;BME280;61545;53.726;-0.444;2023-06-26T14:27:20;1013.6;;;22.4;89.2
73316;BME280;61545;53.726;-0.444;2023-06-26T14:32:20;1013.6;;;22.7;88.9
73316;BME280;61545;53.726;-0.444;2023-06-26T14:37:20;1013.6;;;22.4;86.2
73316;BME280;61545;53.726;-0.444;2023-06-26T14:42:20;1013.7;;;22.4;85.9
73316;BME280;61545;53.726;-0.444;2023-06-26T14:47:20;1013.6;;;22.0;84.0
73316;BME280;61545;53.726;-0.444;2023-06-26T14:52:20;1013.7;;;22.2;84.4
73316;BME280;61545;53.726;-0.444;2023-06-26T14:57:20;1013.5;;;22.4;82.6
73316;BME280;61545;53.726;-0.444;2023-06-26T15:02:20;1013.5;;;22.2;82.3
73316;BME280;61545;53.726;-0.444;2023-06-26T15:07:20;1013.8;;;21.7;84.3
73316;BME280;61545;53.726;-0.444;2023-06-26T15:12:20;1013.7;;;21.9;86.8
73316;BME280;61545;53.726;-0.444;2023-06-26T15:17:20;1013.8;;;21.8;88.8
73316;BME280;61545;53.726;-0.444;2023-06-26T15:22:22;1013.8;;;21.7;90.2
73316;BME280;61545;53.726;-0.444;2023-06-26T15:27:20;1013.8;;;21.9;91.3
73316;BME280;61545;53.726;-0.444;2023-06-26T15:32:20;1013.7;;;22.0;88.8
73316;BME280;61545;53.726;-0.444;2023-06-26T15:37:20;1013.8;;;22.0;86.4
73316;BME280;61545;53.726;-0.444;2023-06-26T15:42:20;1013.8;;;21.9;84.8
73316;BME280;61545;53.726;-0.444;2023-06-26T15:47:20;1013.8;;;21.7;84.1
73316;BME280;61545;53.726;-0.444;2023-06-26T15:52:20;1013.8;;;21.9;85.9
73316;BME280;61545;53.726;-0.444;2023-06-26T15:57:20;1013.8;;;21.9;86.3
73316;BME280;61545;53.726;-0.444;2023-06-26T16:02:20;1013.8;;;21.9;88.1
73316;BME280;61545;53.726;-0.444;2023-06-26T16:07:20;1013.8;;;21.9;88.1
73316;BME280;61545;53.726;-0.444;2023-06-26T16:12:20;1013.8;;;21.9;87.1
73316;BME280;61545;53.726;-0.444;2023-06-26T16:17:20;1013.8;;;22.1;86.8
73316;BME280;61545;53.726;-0.444;2023-06-26T16:22:20;1013.8;;;22.2;86.2
73316;BME280;61545;53.726;-0.444;2023-06-26T16:27:20;1013.7;;;22.2;85.4
73316;BME280;61545;53.726;-0.444;2023-06-26T16:32:20;1013.9;;;21.9;85.7
73316;BME280;61545;53.726;-0.444;2023-06-26T16:37:20;1013.9;;;21.5;86.4
73316;BME280;61545;53.726;-0.444;2023-06-26T16:42:20;1013.9;;;21.3;88.1
73316;BME280;61545;53.726;-0.444;2023-06-26T16:47:20;1013.9;;;21.9;89.8
73316;BME280;61545;53.726;-0.444;2023-06-26T16:52:20;1014.0;;;21.7;90.2
73316;BME280;61545;53.726;-0.444;2023-06-26T16:57:20;1013.9;;;21.2;89.7
73316;BME280;61545;53.726;-0.444;2023-06-26T17:02:20;1013.9;;;21.5;89.8
73316;BME280;61545;53.726;-0.444;2023-06-26T17:07:20;1013.9;;;21.6;88.6
73316;BME280;61545;53.726;-0.444;2023-06-26T17:12:20;1014.0;;;21.5;87.6
73316;BME280;61545;53.726;-0.444;2023-06-26T17:17:20;1013.9;;;21.2;86.2
73316;BME280;61545;53.726;-0.444;2023-06-26T17:22:20;1013.9;;;21.2;86.1
73316;BME280;61545;53.726;-0.444;2023-06-26T17:27:20;1014.1;;;21.1;86.2
73316;BME280;61545;53.726;-0.444;2023-06-26T17:32:20;1014.1;;;21.0;87.5
73316;BME280;61545;53.726;-0.444;2023-06-26T17:37:20;1014.1;;;21.0;90.2
73316;BME280;61545;53.726;-0.444;2023-06-26T17:42:20;1014.1;;;21.0;89.9
73316;BME280;61545;53.726;-0.444;2023-06-26T17:47:20;1014.2;;;21.0;89.8
73316;BME280;61545;53.726;-0.444;2023-06-26T17:52:20;1014.2;;;20.8;89.7
73316;BME280;61545;53.726;-0.444;2023-06-26T17:57:20;1014.3;;;20.7;90.2
73316;BME280;61545;53.726;-0.444;2023-06-26T18:02:20;1014.3;;;20.7;92.0
73316;BME280;61545;53.726;-0.444;2023-06-26T18:07:20;1014.4;;;20.7;93.6
73316;BME280;61545;53.726;-0.444;2023-06-26T18:12:20;1014.5;;;20.4;95.3
73316;BME280;61545;53.726;-0.444;2023-06-26T18:17:20;1014.5;;;20.5;97.2
73316;BME280;61545;53.726;-0.444;2023-06-26T18:22:20;1014.7;;;20.3;97.4
73316;BME280;61545;53.726;-0.444;2023-06-26T18:27:20;1014.7;;;20.1;97.4
73316;BME280;61545;53.726;-0.444;2023-06-26T18:32:20;1014.7;;;19.9;97.8
73316;BME280;61545;53.726;-0.444;2023-06-26T18:37:20;1014.7;;;19.9;100.0
73316;BME280;61545;53.726;-0.444;2023-06-26T18:42:20;1014.8;;;19.9;100.0
73316;BME280;61545;53.726;-0.444;2023-06-26T18:47:20;1014.9;;;19.7;100.0
73316;BME280;61545;53.726;-0.444;2023-06-26T18:52:20;1014.9;;;19.7;100.0
73316;BME280;61545;53.726;-0.444;2023-06-26T18:57:20;1014.9;;;19.5;100.0
73316;BME280;61545;53.726;-0.444;2023-06-26T19:02:20;1015.1;;;19.5;100.0
73316;BME280;61545;53.726;-0.444;2023-06-26T19:07:20;1015.1;;;19.4;100.0
73316;BME280;61545;53.726;-0.444;2023-06-26T19:12:20;1015.2;;;19.4;100.0
73316;BME280;61545;53.726;-0.444;2023-06-26T19:17:20;1015.3;;;unknown;100.0
73316;BME280;61545;53.726;-0.444;2023-06-26T19:22:20;1015.3;;;19.3;100.0
73316;BME280;61545;53.726;-0.444;2023-06-26T19:27:20;1015.3;;;19.2;100.0
73316;BME280;61545;53.726;-0.444;2023-06-26T19:32:20;1015.3;;;19.1;100.0
73316;BME280;61545;53.726;-0.444;2023-06-26T19:37:20;1015.4;;;19.0;100.0
73316;BME280;61545;53.726;-0.444;2023-06-26T19:42:20;1015.4;;;18.9;100.0
73316;BME280;61545;53.726;-0.444;2023-06-26T19:47:20;1015.4;;;18.9;100.0
73316;BME280;61545;53.726;-0.444;2023-06-26T19:52:20;1015.5;;;18.7;100.0
73316;BME280;61545;53.726;-0.444;2023-06-26T19:57:20;1015.5;;;18.7;100.0
73316;BME280;61545;53.726;-0.444;2023-06-26T20:02:20;1015.6;;;18.6;100.0
73316;BME280;61545;53.726;-0.444;2023-06-26T20:07:20;1015.6;;;18.5;100.0
73316;BME280;61545;53.726;-0.444;2023-06-26T20:12:20;1015.6;;;18.5;100.0
73316;BME280;61545;53.726;-0.444;2023-06-26T20:17:20;1015.6;;;18.5;100.0
73316;BME280;61545;53.726;-0.444;2023-06-26T20:22:20;1015.7;;;18.4;100.0
73316;BME280;61545;53.726;-0.444;2023-06-26T20:27:20;1015.8;;;18.3;100.0
73316;BME280;61545;53.726;-0.444;2023-06-26T20:32:20;1015.9;;;18.0;100.0
73316;BME280;61545;53.726;-0.444;2023-06-26T20:37:20;1015.9;;;18.0;100.0
73316;BME280;61545;53.726;-0.444;2023-06-26T20:42:20;1015.9;;;18.0;100.0
73316;BME280;61545;53.726;-0.444;2023-06-26T20:47:20;1015.9;;;18.0;100.0
73316;BME280;61545;53.726;-0.444;2023-06-26T20:52:20;1016.0;;;17.9;100.0
73316;BME280;61545;53.726;-0.444;2023-06-26T20:57:20;1016.0;;;17.9;100.0
73316;BME280;61545;53.726;-0.444;2023-06-26T21:02:20;1016.1;;;17.8;100.0
73316;BME280;61545;53.726;-0.444;2023-06-26T21:07:20;1016.0;;;17.7;100.0
73316;BME280;61545;53.726;-0.444;2023-06-26T21:12:20;1016.0;;;17.7;100.0
73316;BME280;61545;53.726;-0.444;2023-06-26T21:17:20;1016.0;;;17.6;100.0
73316;BME280;61545;53.726;-0.444;2023-06-26T21:22:20;1016.0;;;17.5;100.0
73316;BME280;61545;53.726;-0.444;2023-06-26T21:27:20;1016.0;;;17.5;100.0
73316;BME280;61545;53.726;-0.444;2023-06-26T21:32:20;1016.0;;;17.5;100.0
73316;BME280;61545;53.726;-0.444;2023-06-26T21:37:20;1016.0;;;17.5;100.0
73316;BME280;61545;53.726;-0.444;2023-06-26T21:42:20;1016.0;;;17.5;100.0
73316;BME280;61545;53.726;-0.444;2023-06-26T21:47:20;1016.0;;;17.4;100.0
73316;BME280;61545;53.726;-0.444;2023-06-26T21:52:20;1015.9;;;17.4;100.0
73316;BME280;61545;53.726;-0.444;2023-06-26T21:57:20;1016.1;;;17.3;100.0
73316;BME280;61545;53.726;-0.444;2023-06-26T22:02:20;1016.1;;;17.2;100.0
73316;BME280;61545;53.726;-0.444;2023-06-26T22:07:20;1016.2;;;17.3;100.0
73316;BME280;61545;53.726;-0.444;2023-06-26T22:12:20;1016.2;;;17.2;100.0
73316;BME280;61545;53.726;-0.444;2023-06-26T22:17:20;1016.4;;;17.2;100.0
73316;BME280;61545;53.726;-0.444;2023-06-26T22:22:20;1016.4;;;17.2;100.0
73316;BME280;61545;53.726;-0.444;2023-06-26T22:27:20;1016.5;;;17.2;100.0
73316;BME280;61545;53.726;-0.444;2023-06-26T22:32:20;1016.5;;;17.2;100.0
73316;BME280;61545;53.726;-0.444;2023-06-26T22:37:20;1016.5;;;17.2;100.0
73316;BME280;61545;53.726;-0.444;2023-06-26T22:42:20;1016.5;;;17.2;100.0
73316;BME280;61545;53.726;-0.444;2023-06-26T22:47:20;1016.5;;;16.9;100.0
73316;BME280;61545;53.726;-0.444;2023-06-26T22:52:20;1016.5;;;17.0;100.0
73316;BME280;61545;53.726;-0.444;2023-06-26T22:57:20;1016.5;;;16.9;100.0
73316;BME280;61545;53.726;-0.444;2023-06-26T23:02:20;1016.5;;;16.9;100.0
73316;BME280;61545;53.726;-0.444;2023-06-26T23:07:20;1016.6;;;17.0;100.0
73316;BME280;61545;53.726;-0.444;2023-06-26T23:12:20;1016.5;;;17.0;100.0
73316;BME280;61545;53.726;-0.444;2023-06-26T23:17:20;1016.6;;;16.8;100.0
73316;BME280;61545;53.726;-0.444;2023-06-26T23:22:20;1016.6;;;16.9;100.0
73316;BME280;61545;53.726;-0.444;2023-06-26T23:27:20;1016.6;;;17.0;100.0
73316;BME280;61545;53.726;-0.444;2023-06-26T23:32:20;1016.6;;;17.0;100.0
73316;BME280;61545;53.726;-0.444;2023-06-26T23:37:20;1016.6;;;17.0;100.0
73316;BME280;61545;53.726;-0.444;2023-06-26T23:42:20;1016.6;;;16.9;100.0
73316;BME280;61545;53.726;-0.444;2023-06-26T23:47:20;1016.5;;;16.9;100.0
73316;BME280;61545;53.726;-0.444;2023-06-26T23:52:20;1016.6;;;16.7;100.0
73316;BME280;61545;53.726;-0.444;2023-06-26T23:57:20;1016.6;;;16.9;100.0
